Time;durP1;ratioP1;P1;durP2;ratioP2;P2;SDS_P1;SDS_P2;PMS_P1;PMS_P2;Temp;Humidity;BMP_temperature;BMP_pressure;BME280_temperature;BME280_humidity;BME280_pressure;Samples;Min_cycle;Max_cycle;Signal;HPM_P1;HPM_P2
2023/04/16 04:02:54;;;;;;;0.60;0.20;;;10.70;99.90;;;;;;4929243;23;20527;-73
2023/04/16 04:05:22;;;;;;;0.50;0.10;;;10.50;99.90;;;;;;4909380;29;20481;-74
2023/04/16 04:07:50;;;;;;;0.50;0.10;;;10.50;99.90;;;;;;4898627;29;20445;-74
2023/04/16 04:10:18;;;;;;;1.73;1.63;;;10.40;99.90;;;;;;4898627;29;20507;-73
2023/04/16 04:12:46;;;;;;;0.60;0.10;;;10.40;99.90;;;;;;4905716;29;20483;-73
2023/04/16 04:15:14;;;;;;;0.70;0.50;;;10.30;99.90;;;;;;4915246;23;20840;-77
2023/04/16 04:17:42;;;;;;;0.50;0.10;;;10.30;99.90;;;;;;4899055;29;20650;-77
2023/04/16 04:20:12;;;;;;;1.70;1.60;;;10.30;99.90;;;;;;4900098;29;20485;-77
2023/04/16 04:22:40;;;;;;;0.60;0.20;;;10.30;99.90;;;;;;4900294;29;20576;-78
2023/04/16 04:25:09;;;;;;;0.60;0.27;;;10.30;99.90;;;;;;4898273;29;20509;-78
2023/04/16 04:27:37;;;;;;;0.50;0.10;;;10.30;99.90;;;;;;4891613;29;20455;-78
2023/04/16 04:30:06;;;;;;;0.50;0.10;;;10.30;99.90;;;;;;4899134;29;20457;-78
2023/04/16 04:32:34;;;;;;;0.60;0.30;;;10.30;99.90;;;;;;4897804;29;20453;-78
2023/04/16 04:35:03;;;;;;;0.60;0.20;;;10.30;99.90;;;;;;4898304;29;20485;-78
2023/04/16 04:37:32;;;;;;;1.33;1.23;;;10.30;99.90;;;;;;4899206;29;20518;-78
2023/04/16 04:40:00;;;;;;;1.07;1.07;;;10.40;99.90;;;;;;4899259;29;21020;-79
2023/04/16 04:42:28;;;;;;;0.50;0.10;;;10.30;99.90;;;;;;4898791;29;20481;-78
2023/04/16 04:44:56;;;;;;;0.60;0.30;;;10.30;99.90;;;;;;4898985;29;21048;-78
2023/04/16 04:47:23;;;;;;;0.50;0.10;;;10.40;99.90;;;;;;4881255;29;20457;-78
2023/04/16 04:49:51;;;;;;;15.20;2.60;;;10.40;99.90;;;;;;4898998;29;20454;-75
2023/04/16 04:52:19;;;;;;;0.50;0.10;;;10.40;99.90;;;;;;4903328;29;20461;-79
2023/04/16 04:54:48;;;;;;;0.53;0.10;;;10.40;99.90;;;;;;4899141;29;20540;-77
2023/04/16 04:57:16;;;;;;;0.50;0.10;;;10.40;99.90;;;;;;4895832;29;20453;-77
2023/04/16 04:59:44;;;;;;;0.50;0.10;;;10.40;99.90;;;;;;4889820;29;20454;-77
2023/04/16 05:02:12;;;;;;;0.50;0.10;;;10.40;99.90;;;;;;4886625;29;20487;-78
2023/04/16 05:04:40;;;;;;;0.50;0.10;;;10.40;99.90;;;;;;4887066;29;21042;-78
2023/04/16 05:07:08;;;;;;;0.50;0.10;;;10.50;99.90;;;;;;4896679;29;20458;-78
2023/04/16 05:09:35;;;;;;;0.60;0.20;;;10.50;99.90;;;;;;4898650;29;20548;-78
2023/04/16 05:12:05;;;;;;;0.50;0.10;;;10.50;99.90;;;;;;4897902;29;20465;-78
2023/04/16 05:14:34;;;;;;;0.60;0.40;;;10.50;99.90;;;;;;4882328;29;20897;-77
2023/04/16 05:17:02;;;;;;;0.50;0.10;;;10.50;99.90;;;;;;4881144;29;21187;-78
2023/04/16 05:19:30;;;;;;;0.50;0.10;;;10.50;99.90;;;;;;4879162;29;20466;-78
2023/04/16 05:21:58;;;;;;;1.10;0.77;;;10.50;99.90;;;;;;4880502;29;20464;-78
2023/04/16 05:24:26;;;;;;;0.97;0.97;;;10.60;99.90;;;;;;4883181;29;20478;-77
2023/04/16 05:26:55;;;;;;;0.50;0.20;;;10.60;99.90;;;;;;4896605;29;20945;-77
2023/04/16 05:29:24;;;;;;;0.50;0.10;;;10.60;99.90;;;;;;4893249;29;20938;-78
2023/04/16 05:31:53;;;;;;;0.60;0.30;;;10.60;99.90;;;;;;4884752;29;20462;-79
2023/04/16 05:34:21;;;;;;;0.50;0.10;;;10.60;99.90;;;;;;4891183;29;20917;-79
2023/04/16 05:36:48;;;;;;;0.50;0.10;;;10.60;99.90;;;;;;4883932;29;20987;-79
2023/04/16 05:39:17;;;;;;;2.67;1.33;;;10.60;99.90;;;;;;4881868;29;20454;-78
2023/04/16 05:41:45;;;;;;;0.50;0.10;;;10.60;99.90;;;;;;4879841;29;20459;-78
2023/04/16 05:44:14;;;;;;;0.60;0.30;;;10.60;99.90;;;;;;4891612;29;20501;-79
2023/04/16 05:46:43;;;;;;;0.87;0.87;;;10.60;99.90;;;;;;4896638;29;20458;-78
2023/04/16 05:49:11;;;;;;;1.97;0.97;;;10.60;99.90;;;;;;4902912;29;20461;-78
2023/04/16 05:51:39;;;;;;;0.50;0.10;;;10.60;99.90;;;;;;4903037;29;20449;-78
2023/04/16 05:54:07;;;;;;;1.67;0.40;;;10.60;99.90;;;;;;4903779;29;21016;-76
2023/04/16 05:56:34;;;;;;;0.60;0.20;;;10.60;99.90;;;;;;4906072;29;20510;-78
2023/04/16 05:59:02;;;;;;;0.60;0.10;;;10.70;99.90;;;;;;4900528;29;21020;-78
2023/04/16 06:01:30;;;;;;;0.50;0.10;;;10.70;99.90;;;;;;4900115;29;21008;-78
2023/04/16 06:04:02;;;;;;;0.50;0.10;;;10.70;99.90;;;;;;4888020;29;20493;-78
2023/04/16 06:06:30;;;;;;;0.50;0.10;;;10.70;99.90;;;;;;4902669;29;20948;-78
2023/04/16 06:08:58;;;;;;;0.80;0.80;;;11.80;99.90;;;;;;4899677;29;20952;-78
2023/04/16 06:11:26;;;;;;;0.50;0.10;;;10.70;99.90;;;;;;4897778;29;20464;-78
2023/04/16 06:13:54;;;;;;;0.50;0.10;;;10.70;99.90;;;;;;4897839;29;20517;-78
2023/04/16 06:16:21;;;;;;;1.20;0.60;;;10.70;99.90;;;;;;4900250;29;20449;-80
2023/04/16 06:18:49;;;;;;;0.50;0.10;;;10.70;99.90;;;;;;4897908;29;20501;-78
2023/04/16 06:21:18;;;;;;;0.50;0.10;;;10.70;99.90;;;;;;4900452;29;20458;-78
2023/04/16 06:23:46;;;;;;;0.50;0.10;;;10.60;99.90;;;;;;4889156;29;20612;-78
2023/04/16 06:26:14;;;;;;;1.60;1.50;;;10.70;99.90;;;;;;4881516;29;20455;-78
2023/04/16 06:28:42;;;;;;;0.50;0.10;;;10.70;99.90;;;;;;4884203;29;20474;-77
2023/04/16 06:31:10;;;;;;;2.50;0.57;;;10.70;99.90;;;;;;4885102;29;20456;-78
2023/04/16 06:33:38;;;;;;;2.10;1.40;;;10.70;99.90;;;;;;4887143;29;20510;-77
2023/04/16 06:36:06;;;;;;;0.60;0.20;;;10.60;99.90;;;;;;4882149;29;20821;-78
2023/04/16 06:38:37;;;;;;;0.50;0.10;;;10.60;99.90;;;;;;4881702;29;20510;-78
2023/04/16 06:41:05;;;;;;;0.60;0.30;;;10.60;99.90;;;;;;4892339;29;20461;-78
2023/04/16 06:43:33;;;;;;;0.60;0.10;;;10.60;99.90;;;;;;4899177;29;20482;-78
2023/04/16 06:46:01;;;;;;;0.50;0.17;;;10.60;99.90;;;;;;4900110;29;20451;-78
2023/04/16 06:48:31;;;;;;;0.50;0.10;;;10.50;99.90;;;;;;4900052;29;20453;-78
2023/04/16 06:51:02;;;;;;;0.50;0.10;;;;;;;;;;4899667;29;20453;-78
2023/04/16 06:53:29;;;;;;;0.50;0.10;;;10.50;99.90;;;;;;4899519;29;20452;-78
2023/04/16 06:55:59;;;;;;;0.60;0.33;;;10.50;99.90;;;;;;4899768;29;20462;-78
2023/04/16 06:58:27;;;;;;;1.70;1.60;;;10.50;99.90;;;;;;4899968;29;20454;-78
2023/04/16 07:00:54;;;;;;;0.87;0.63;;;10.50;99.90;;;;;;4903337;29;20513;-78
2023/04/16 07:03:22;;;;;;;0.50;0.10;;;10.50;99.90;;;;;;4918968;29;20467;-79
2023/04/16 07:05:50;;;;;;;0.50;0.10;;;10.50;99.90;;;;;;4918629;29;20521;-77
2023/04/16 07:08:18;;;;;;;0.50;0.10;;;10.50;99.90;;;;;;4908487;29;20458;-78
2023/04/16 07:10:46;;;;;;;0.60;0.43;;;10.40;99.90;;;;;;4900681;29;20514;-78
2023/04/16 07:13:17;;;;;;;0.50;0.20;;;10.40;99.90;;;;;;4895053;29;20458;-78
2023/04/16 07:15:45;;;;;;;0.50;0.10;;;10.40;99.90;;;;;;4880707;29;20481;-79
2023/04/16 07:18:13;;;;;;;6.73;2.13;;;10.40;99.90;;;;;;4885931;29;20461;-78
2023/04/16 07:20:41;;;;;;;0.50;0.20;;;10.40;99.90;;;;;;4884650;29;20466;-78
2023/04/16 07:23:09;;;;;;;0.50;0.10;;;10.50;99.90;;;;;;4894984;29;20458;-79
2023/04/16 07:25:37;;;;;;;0.77;0.77;;;10.50;99.90;;;;;;4901336;29;20483;-77
2023/04/16 07:28:04;;;;;;;0.50;0.10;;;10.50;99.90;;;;;;4911625;29;20450;-78
2023/04/16 07:30:34;;;;;;;0.50;0.10;;;10.50;99.90;;;;;;4910507;29;20445;-77
2023/04/16 07:33:02;;;;;;;0.50;0.10;;;10.50;99.90;;;;;;4904856;29;20507;-78
2023/04/16 07:35:31;;;;;;;0.50;0.20;;;10.50;99.90;;;;;;4907107;29;20464;-77
2023/04/16 07:37:59;;;;;;;0.93;0.20;;;10.50;99.90;;;;;;4908330;29;20457;-78
2023/04/16 07:40:27;;;;;;;2.77;2.57;;;10.50;99.90;;;;;;4898810;29;20449;-77
2023/04/16 07:42:55;;;;;;;0.60;0.40;;;10.50;99.90;;;;;;4908793;29;20460;-78
2023/04/16 07:45:23;;;;;;;0.87;0.70;;;10.50;99.90;;;;;;4908629;29;21012;-79
2023/04/16 07:47:52;;;;;;;0.60;0.30;;;10.60;99.90;;;;;;4900146;29;20458;-78
2023/04/16 07:50:20;;;;;;;1.67;0.70;;;10.60;99.90;;;;;;4903103;29;20501;-79
2023/04/16 07:52:48;;;;;;;0.50;0.10;;;10.60;99.90;;;;;;4900727;29;20460;-78
2023/04/16 07:55:16;;;;;;;0.50;0.20;;;10.60;99.90;;;;;;4900009;29;20470;-78
2023/04/16 07:57:44;;;;;;;1.90;1.60;;;10.70;99.90;;;;;;4904710;29;20462;-78
2023/04/16 08:00:12;;;;;;;0.50;0.10;;;10.70;99.90;;;;;;4907697;29;20483;-78
2023/04/16 08:02:41;;;;;;;0.50;0.17;;;;;;;;;;4909001;29;20456;-78
2023/04/16 08:05:11;;;;;;;0.50;0.10;;;10.80;99.90;;;;;;4909701;29;20486;-78
2023/04/16 08:07:39;;;;;;;1.00;0.90;;;10.80;99.90;;;;;;4906297;29;20493;-78
2023/04/16 08:10:08;;;;;;;0.70;0.33;;;10.80;99.90;;;;;;4906400;29;20479;-75
2023/04/16 08:12:36;;;;;;;0.50;0.10;;;10.90;99.90;;;;;;4904053;29;20459;-78
2023/04/16 08:15:04;;;;;;;3.13;1.50;;;10.90;99.90;;;;;;4897162;29;20483;-78
2023/04/16 08:17:33;;;;;;;0.60;0.30;;;11.00;99.90;;;;;;4889564;29;20923;-79
2023/04/16 08:20:01;;;;;;;0.53;0.10;;;11.00;99.90;;;;;;4883778;29;20503;-78
2023/04/16 08:22:30;;;;;;;0.50;0.10;;;11.00;99.90;;;;;;4888745;29;20469;-79
2023/04/16 08:25:00;;;;;;;0.50;0.10;;;11.00;99.90;;;;;;4903463;29;20492;-78
2023/04/16 08:27:28;;;;;;;0.70;0.63;;;11.00;99.90;;;;;;4901422;29;20454;-79
2023/04/16 08:29:56;;;;;;;1.23;0.70;;;11.00;99.90;;;;;;4884694;29;20463;-79
2023/04/16 08:32:24;;;;;;;0.60;0.30;;;11.10;99.90;;;;;;4884472;29;20455;-79
2023/04/16 08:34:52;;;;;;;0.90;0.77;;;11.00;99.90;;;;;;4898442;29;20470;-79
2023/04/16 08:37:23;;;;;;;1.43;0.93;;;;;;;;;;4897774;29;20467;-78
2023/04/16 08:39:53;;;;;;;0.50;0.17;;;11.10;99.90;;;;;;4908616;29;20972;-78
2023/04/16 08:42:28;;;;;;;1.00;0.63;;;11.10;99.90;;;;;;4906816;29;20459;-79
2023/04/16 08:45:04;;;;;;;1.13;1.00;;;11.10;99.90;;;;;;4908398;29;20493;-79
2023/04/16 08:47:34;;;;;;;1.43;1.27;;;11.10;99.90;;;;;;4909566;29;20458;-79
2023/04/16 08:50:03;;;;;;;0.57;0.27;;;11.20;99.90;;;;;;4917192;29;20534;-79
2023/04/16 08:52:32;;;;;;;0.60;0.10;;;11.20;99.90;;;;;;4921101;29;20460;-80
2023/04/16 08:55:06;;;;;;;0.60;0.30;;;11.30;99.90;;;;;;4927154;29;20500;-78
2023/04/16 08:57:43;;;;;;;0.50;0.10;;;11.30;99.90;;;;;;4924970;29;20480;-79
2023/04/16 09:00:13;;;;;;;0.60;0.10;;;11.30;99.90;;;;;;4911564;29;20435;-80
2023/04/16 09:02:42;;;;;;;0.60;0.20;;;11.30;99.90;;;;;;4913336;29;20486;-79
2023/04/16 09:05:15;;;;;;;0.97;0.80;;;11.40;99.90;;;;;;4913096;29;20530;-79
2023/04/16 09:07:44;;;;;;;0.60;0.20;;;11.40;99.90;;;;;;4915853;29;20471;-80
2023/04/16 09:10:15;;;;;;;0.90;0.40;;;11.40;99.90;;;;;;4914867;29;20460;-78
2023/04/16 09:12:44;;;;;;;0.80;0.53;;;11.40;99.90;;;;;;4908689;29;20561;-78
2023/04/16 09:15:13;;;;;;;4.53;1.90;;;11.40;99.90;;;;;;4906771;29;20483;-79
2023/04/16 09:17:41;;;;;;;5.40;0.77;;;11.40;99.90;;;;;;4906708;29;20466;-78
2023/04/16 09:20:11;;;;;;;0.60;0.10;;;11.50;99.90;;;;;;4907555;29;20456;-78
2023/04/16 09:22:39;;;;;;;0.60;0.10;;;11.50;99.90;;;;;;4902651;29;20945;-76
2023/04/16 09:25:09;;;;;;;0.60;0.20;;;11.50;99.90;;;;;;4888503;29;20499;-79
2023/04/16 09:27:38;;;;;;;1.90;1.80;;;11.60;99.90;;;;;;4895604;29;20880;-79
2023/04/16 09:30:21;;;;;;;0.63;0.63;;;11.60;99.90;;;;;;4890726;29;20458;-78
2023/04/16 09:32:50;;;;;;;1.60;1.47;;;11.60;99.90;;;;;;4895364;29;20466;-80
2023/04/16 09:35:19;;;;;;;0.60;0.20;;;11.70;99.90;;;;;;4908132;29;20473;-78
2023/04/16 09:37:55;;;;;;;0.80;0.50;;;11.70;99.90;;;;;;4904145;29;20454;-78
2023/04/16 09:40:29;;;;;;;0.60;0.10;;;11.70;99.90;;;;;;4901554;29;20861;-78
2023/04/16 09:42:59;;;;;;;0.70;0.30;;;11.70;99.90;;;;;;4908663;29;20550;-79
2023/04/16 09:45:32;;;;;;;0.60;0.10;;;11.80;99.90;;;;;;4905000;29;20510;-77
2023/04/16 09:48:04;;;;;;;3.90;1.50;;;11.70;99.90;;;;;;4910962;29;20819;-79
2023/04/16 09:50:32;;;;;;;0.60;0.10;;;11.80;99.90;;;;;;4910890;29;20456;-79
2023/04/16 09:53:03;;;;;;;3.60;1.60;;;11.80;99.90;;;;;;4914798;29;20993;-80
2023/04/16 09:55:32;;;;;;;1.33;0.63;;;11.90;99.90;;;;;;4903815;29;20479;-79
2023/04/16 09:58:02;;;;;;;2.50;2.00;;;11.90;99.90;;;;;;4913286;29;20455;-78
2023/04/16 10:00:31;;;;;;;0.60;0.20;;;11.90;99.90;;;;;;4910730;29;20490;-78
2023/04/16 10:03:06;;;;;;;0.60;0.10;;;11.90;99.90;;;;;;4904860;29;20455;-79
2023/04/16 10:05:35;;;;;;;0.60;0.10;;;11.90;99.90;;;;;;4906128;29;20557;-80
2023/04/16 10:08:10;;;;;;;0.60;0.10;;;11.90;99.90;;;;;;4909285;29;20995;-78
2023/04/16 10:10:38;;;;;;;2.00;1.90;;;11.90;99.90;;;;;;4902552;29;20465;-75
2023/04/16 10:13:08;;;;;;;0.60;0.30;;;11.90;99.90;;;;;;4897391;29;20457;-76
2023/04/16 10:15:36;;;;;;;0.60;0.10;;;11.90;99.90;;;;;;4901514;29;20471;-77
2023/04/16 10:18:05;;;;;;;0.60;0.10;;;11.90;99.90;;;;;;4903236;29;20450;-77
2023/04/16 10:20:33;;;;;;;2.73;2.53;;;12.00;99.90;;;;;;4899025;29;20561;-78
2023/04/16 10:23:02;;;;;;;0.60;0.10;;;12.00;99.90;;;;;;4899422;29;20950;-77
2023/04/16 10:25:31;;;;;;;0.60;0.10;;;12.00;99.90;;;;;;4882607;29;20497;-78
2023/04/16 10:28:00;;;;;;;0.60;0.10;;;12.00;99.90;;;;;;4899207;29;20454;-77
2023/04/16 10:30:30;;;;;;;0.60;0.10;;;12.00;99.90;;;;;;4900004;29;20486;-77
2023/04/16 10:32:58;;;;;;;0.70;0.40;;;12.00;99.90;;;;;;4883471;29;20467;-75
2023/04/16 10:35:27;;;;;;;0.70;0.47;;;12.00;99.90;;;;;;4899980;29;21053;-80
2023/04/16 10:37:56;;;;;;;0.60;0.10;;;12.00;99.90;;;;;;4900972;29;20458;-78
2023/04/16 10:40:25;;;;;;;2.03;1.93;;;12.00;99.90;;;;;;4901403;29;20526;-76
2023/04/16 10:42:57;;;;;;;0.60;0.10;;;11.90;99.90;;;;;;4894509;29;20798;-76
2023/04/16 10:45:32;;;;;;;0.60;0.30;;;12.00;99.90;;;;;;4899097;29;20487;-77
2023/04/16 10:48:04;;;;;;;0.60;0.10;;;12.00;99.90;;;;;;4900711;29;20502;-78
2023/04/16 10:50:35;;;;;;;0.60;0.20;;;12.00;99.90;;;;;;4901395;29;20444;-77
2023/04/16 10:53:20;;;;;;;0.60;0.27;;;12.00;99.90;;;;;;4900395;29;20486;-76
2023/04/16 10:55:57;;;;;;;0.97;0.30;;;12.00;99.90;;;;;;4901084;29;20461;-76
2023/04/16 10:58:28;;;;;;;0.60;0.10;;;11.90;99.90;;;;;;4902054;29;20950;-76
2023/04/16 11:01:00;;;;;;;0.60;0.10;;;12.00;99.90;;;;;;4904521;29;20452;-76
2023/04/16 11:03:31;;;;;;;0.60;0.30;;;12.00;99.90;;;;;;4900066;29;20454;-77
2023/04/16 11:06:15;;;;;;;1.03;0.80;;;12.00;99.90;;;;;;4899564;29;20487;-77
2023/04/16 11:08:46;;;;;;;0.60;0.20;;;11.90;99.90;;;;;;4900175;29;20440;-78
2023/04/16 11:11:22;;;;;;;0.60;0.10;;;12.00;99.90;;;;;;4898206;29;20462;-76
2023/04/16 11:13:54;;;;;;;1.60;1.50;;;12.00;99.90;;;;;;4902494;29;20487;-77
2023/04/16 11:16:26;;;;;;;0.60;0.20;;;11.90;99.90;;;;;;4902346;29;20447;-77
2023/04/16 11:18:55;;;;;;;0.50;0.10;;;11.90;99.90;;;;;;4901728;29;20935;-77
2023/04/16 11:21:25;;;;;;;0.60;0.30;;;11.90;99.90;;;;;;4899283;29;20477;-77
2023/04/16 11:23:53;;;;;;;0.60;0.10;;;11.90;99.90;;;;;;4888436;29;21007;-76
2023/04/16 11:26:25;;;;;;;0.60;0.20;;;11.90;99.90;;;;;;4901244;29;20494;-77
2023/04/16 11:28:55;;;;;;;0.60;0.10;;;11.80;99.90;;;;;;4894650;29;20456;-77
2023/04/16 11:31:25;;;;;;;1.27;1.17;;;11.80;99.90;;;;;;4900450;29;20466;-78
2023/04/16 11:33:56;;;;;;;0.60;0.10;;;11.80;99.90;;;;;;4901763;29;20474;-77
2023/04/16 11:36:25;;;;;;;0.50;0.10;;;11.80;99.90;;;;;;4902207;29;20993;-77
2023/04/16 11:39:02;;;;;;;0.80;0.80;;;11.80;99.90;;;;;;4901311;29;20448;-77
2023/04/16 11:41:30;;;;;;;0.70;0.27;;;11.80;99.90;;;;;;4903244;29;20463;-78
2023/04/16 11:43:58;;;;;;;1.20;1.10;;;11.80;99.90;;;;;;4905029;29;20483;-79
2023/04/16 11:46:38;;;;;;;0.70;0.40;;;11.90;99.90;;;;;;4909076;29;20487;-81
2023/04/16 11:49:06;;;;;;;0.83;0.57;;;12.10;99.90;;;;;;4916940;29;20454;-82
2023/04/16 11:51:39;;;;;;;0.60;0.10;;;12.10;99.90;;;;;;4913016;29;20476;-82
2023/04/16 11:54:08;;;;;;;0.60;0.10;;;12.10;99.90;;;;;;4913491;29;21004;-83
2023/04/16 11:56:39;;;;;;;0.60;0.10;;;;;;;;;;4909630;29;20471;-77
2023/04/16 11:59:08;;;;;;;0.60;0.10;;;12.10;99.90;;;;;;4902092;29;20681;-78
2023/04/16 12:01:40;;;;;;;0.60;0.17;;;12.10;99.90;;;;;;4898873;29;20462;-77
2023/04/16 12:04:08;;;;;;;0.60;0.10;;;12.10;99.90;;;;;;4897461;29;20468;-79
2023/04/16 12:06:37;;;;;;;0.63;0.30;;;12.00;99.90;;;;;;4885657;29;20893;-78
2023/04/16 12:09:23;;;;;;;0.80;0.63;;;12.10;99.90;;;;;;4901161;29;20513;-79
2023/04/16 12:11:51;;;;;;;0.60;0.10;;;;;;;;;;4900944;29;20442;-78
2023/04/16 12:14:20;;;;;;;0.60;0.10;;;12.00;99.90;;;;;;4903355;29;20490;-77
2023/04/16 12:16:49;;;;;;;0.60;0.20;;;12.00;99.90;;;;;;4905088;29;20451;-79
2023/04/16 12:19:18;;;;;;;0.80;0.60;;;12.00;99.90;;;;;;4906621;29;20451;-78
2023/04/16 12:21:47;;;;;;;0.60;0.10;;;12.00;99.90;;;;;;4908979;29;20460;-80
2023/04/16 12:24:19;;;;;;;0.50;0.20;;;12.00;99.90;;;;;;4894064;29;20474;-81
2023/04/16 12:26:51;;;;;;;0.60;0.10;;;12.00;99.90;;;;;;4895897;29;20578;-80
2023/04/16 12:29:20;;;;;;;0.60;0.10;;;12.10;99.90;;;;;;4893780;29;20521;-80
2023/04/16 12:31:51;;;;;;;0.60;0.20;;;12.10;99.90;;;;;;4892334;29;20452;-82
2023/04/16 12:34:20;;;;;;;0.60;0.10;;;12.20;99.90;;;;;;4898639;29;20475;-81
2023/04/16 12:36:50;;;;;;;0.70;0.57;;;12.30;99.90;;;;;;4906240;29;20492;-80
2023/04/16 12:39:18;;;;;;;0.60;0.20;;;12.30;99.90;;;;;;4908153;29;20515;-79
2023/04/16 12:41:46;;;;;;;1.00;0.77;;;12.40;99.90;;;;;;4905783;29;20485;-79
2023/04/16 12:44:17;;;;;;;0.60;0.20;;;12.40;99.90;;;;;;4904813;29;20471;-79
2023/04/16 12:46:45;;;;;;;3.60;3.30;;;12.40;99.90;;;;;;4890816;29;20854;-80
2023/04/16 12:49:15;;;;;;;2.77;2.30;;;12.40;99.90;;;;;;4902302;29;20542;-79
2023/04/16 12:51:42;;;;;;;3.60;0.53;;;12.40;99.90;;;;;;4886030;29;20456;-80
2023/04/16 12:54:10;;;;;;;0.60;0.20;;;12.50;99.90;;;;;;4887024;29;20480;-79
2023/04/16 12:56:38;;;;;;;0.60;0.20;;;12.60;99.90;;;;;;4897340;29;20499;-77
2023/04/16 12:59:08;;;;;;;2.77;1.27;;;12.60;99.90;;;;;;4904546;29;20456;-78
2023/04/16 13:01:37;;;;;;;1.77;1.67;;;12.60;99.90;;;;;;4905240;29;20951;-80
2023/04/16 13:04:06;;;;;;;0.70;0.50;;;12.70;99.90;;;;;;4902306;29;20472;-80
2023/04/16 13:06:36;;;;;;;0.60;0.10;;;12.60;99.90;;;;;;4901002;29;20483;-78
2023/04/16 13:09:04;;;;;;;0.60;0.20;;;12.70;99.90;;;;;;4914647;29;20520;-84
2023/04/16 13:11:32;;;;;;;0.60;0.20;;;12.70;99.90;;;;;;4914012;29;20465;-81
2023/04/16 13:14:00;;;;;;;0.60;0.20;;;12.80;99.90;;;;;;4908228;29;20477;-83
2023/04/16 13:16:28;;;;;;;0.60;0.10;;;12.90;99.90;;;;;;4909512;29;20483;-81
2023/04/16 13:18:56;;;;;;;0.60;0.10;;;12.90;99.90;;;;;;4914015;29;20461;-81
2023/04/16 13:21:26;;;;;;;2.93;2.40;;;;;;;;;;4912864;29;20436;-79
2023/04/16 13:23:55;;;;;;;0.70;0.50;;;12.90;99.90;;;;;;4913881;29;20478;-80
2023/04/16 13:26:23;;;;;;;0.60;0.10;;;12.90;99.90;;;;;;4904996;29;20477;-78
2023/04/16 13:28:51;;;;;;;0.60;0.10;;;13.00;99.90;;;;;;4907430;29;20793;-81
2023/04/16 13:31:20;;;;;;;1.43;0.60;;;13.00;99.90;;;;;;4907154;29;20458;-78
2023/04/16 13:33:50;;;;;;;0.60;0.10;;;13.00;99.90;;;;;;4906879;29;20498;-80
2023/04/16 13:36:18;;;;;;;0.80;0.63;;;13.00;99.90;;;;;;4914497;29;20689;-77
2023/04/16 13:38:46;;;;;;;0.80;0.60;;;;;;;;;;4915559;29;20455;-78
2023/04/16 13:41:15;;;;;;;0.60;0.10;;;13.10;99.90;;;;;;4917360;29;20452;-78
2023/04/16 13:43:44;;;;;;;0.70;0.43;;;;;;;;;;4912640;29;20507;-80
2023/04/16 13:46:12;;;;;;;0.60;0.20;;;;;;;;;;4891673;29;20452;-82
2023/04/16 13:48:40;;;;;;;0.60;0.10;;;;;;;;;;4890111;29;20546;-79
2023/04/16 13:51:09;;;;;;;1.73;1.27;;;;;;;;;;4885924;29;20490;-79
2023/04/16 13:53:37;;;;;;;0.70;0.20;;;;;;;;;;4901121;29;20497;-79
2023/04/16 13:56:06;;;;;;;4.00;0.83;;;;;;;;;;4905671;29;20456;-81
2023/04/16 13:58:41;;;;;;;0.97;0.60;;;;;;;;;;4903062;29;20459;-79
2023/04/16 14:01:10;;;;;;;0.70;0.40;;;13.40;99.90;;;;;;4901912;29;20780;-77
2023/04/16 14:03:39;;;;;;;1.00;0.20;;;;;;;;;;4905034;29;20593;-78
2023/04/16 14:06:07;;;;;;;0.60;0.10;;;13.40;99.90;;;;;;4900516;29;20457;-79
2023/04/16 14:08:37;;;;;;;1.37;0.30;;;13.40;99.90;;;;;;4899877;29;20483;-78
2023/04/16 14:11:05;;;;;;;1.80;1.70;;;13.40;99.90;;;;;;4903489;29;20482;-78
2023/04/16 14:13:33;;;;;;;0.70;0.20;;;13.30;99.90;;;;;;4894262;29;20455;-80
2023/04/16 14:16:03;;;;;;;8.67;2.57;;;13.30;99.90;;;;;;4900037;29;20474;-78
2023/04/16 14:18:30;;;;;;;1.63;1.07;;;13.30;99.90;;;;;;4890439;29;20508;-73
2023/04/16 14:21:00;;;;;;;0.60;0.10;;;;;;;;;;4895131;29;20454;-75
2023/04/16 14:23:30;;;;;;;1.73;0.40;;;13.30;99.90;;;;;;4895273;29;20907;-74
2023/04/16 14:25:58;;;;;;;0.60;0.10;;;13.30;99.90;;;;;;4897108;29;20449;-77
2023/04/16 14:28:26;;;;;;;1.33;1.23;;;13.30;99.90;;;;;;4901412;29;20485;-77
2023/04/16 14:30:54;;;;;;;0.60;0.10;;;13.30;99.90;;;;;;4901623;29;20970;-78
2023/04/16 14:33:23;;;;;;;1.67;0.43;;;13.30;99.90;;;;;;4902310;29;20454;-79
2023/04/16 14:35:51;;;;;;;0.73;0.57;;;13.20;99.90;;;;;;4902760;29;20454;-79
2023/04/16 14:38:19;;;;;;;0.60;0.10;;;13.20;99.90;;;;;;4902236;29;20452;-77
2023/04/16 14:40:48;;;;;;;0.60;0.10;;;13.20;99.90;;;;;;4904454;29;20446;-79
2023/04/16 14:43:16;;;;;;;0.60;0.20;;;13.20;99.90;;;;;;4899534;29;20454;-79
2023/04/16 14:45:44;;;;;;;0.90;0.67;;;13.20;99.90;;;;;;4903223;29;20490;-84
2023/04/16 14:48:13;;;;;;;0.60;0.10;;;;;;;;;;4914685;29;20461;-81
2023/04/16 14:50:43;;;;;;;0.60;0.20;;;13.30;99.90;;;;;;4905801;29;20474;-79
2023/04/16 14:53:11;;;;;;;0.60;0.10;;;13.30;99.90;;;;;;4897583;29;20471;-79
2023/04/16 14:55:39;;;;;;;0.60;0.10;;;13.40;99.90;;;;;;4901128;29;20469;-78
2023/04/16 14:58:07;;;;;;;0.60;0.10;;;13.40;99.90;;;;;;4891909;29;20459;-78
2023/04/16 15:00:35;;;;;;;0.60;0.10;;;13.50;99.90;;;;;;4899518;29;20483;-79
2023/04/16 15:03:05;;;;;;;0.70;0.50;;;13.50;99.90;;;;;;4883507;29;20523;-79
2023/04/16 15:05:34;;;;;;;1.67;1.53;;;13.40;99.90;;;;;;4884529;29;20471;-78
2023/04/16 15:08:04;;;;;;;0.60;0.10;;;13.40;99.90;;;;;;4883631;29;20561;-79
2023/04/16 15:10:33;;;;;;;0.60;0.30;;;13.50;99.90;;;;;;4883003;29;20568;-78
2023/04/16 15:13:01;;;;;;;0.83;0.83;;;13.50;99.90;;;;;;4882316;29;20456;-77
2023/04/16 15:15:29;;;;;;;2.43;1.23;;;13.40;99.90;;;;;;4887927;29;21060;-77
2023/04/16 15:17:59;;;;;;;0.60;0.10;;;13.40;99.90;;;;;;4899835;29;20471;-77
2023/04/16 15:20:27;;;;;;;0.60;0.10;;;13.40;99.90;;;;;;4900725;29;20933;-78
2023/04/16 15:22:55;;;;;;;3.70;2.97;;;13.40;99.90;;;;;;4900558;29;21077;-76
2023/04/16 15:25:25;;;;;;;0.60;0.10;;;13.40;99.90;;;;;;4894785;29;20472;-78
2023/04/16 15:27:53;;;;;;;2.70;0.67;;;13.40;99.90;;;;;;4899562;29;20555;-77
2023/04/16 15:30:21;;;;;;;2.00;1.43;;;13.40;99.90;;;;;;4899225;29;20449;-76
2023/04/16 15:32:48;;;;;;;0.80;0.77;;;13.40;99.90;;;;;;4899712;29;20962;-78
2023/04/16 15:35:16;;;;;;;0.60;0.10;;;13.30;99.90;;;;;;4900343;29;20477;-78
2023/04/16 15:37:44;;;;;;;0.60;0.30;;;13.30;99.90;;;;;;4881733;29;20457;-79
2023/04/16 15:40:12;;;;;;;0.90;0.77;;;13.30;99.90;;;;;;4893250;29;20826;-79
2023/04/16 15:42:43;;;;;;;0.60;0.10;;;13.30;99.90;;;;;;4901233;29;20459;-77
2023/04/16 15:45:11;;;;;;;0.60;0.10;;;13.30;99.90;;;;;;4900276;29;20484;-78
2023/04/16 15:47:38;;;;;;;0.60;0.10;;;13.30;99.90;;;;;;4901373;29;20451;-77
2023/04/16 15:50:09;;;;;;;0.60;0.20;;;13.30;99.90;;;;;;4899872;29;20499;-77
2023/04/16 15:52:37;;;;;;;0.60;0.10;;;13.30;99.90;;;;;;4899858;29;20456;-77
2023/04/16 15:55:06;;;;;;;0.60;0.20;;;13.20;99.90;;;;;;4899405;29;20486;-78
2023/04/16 15:57:33;;;;;;;1.73;1.63;;;13.30;99.90;;;;;;4900645;29;20445;-78
2023/04/16 16:00:11;;;;;;;0.60;0.20;;;13.30;99.90;;;;;;4891241;29;20465;-76
2023/04/16 16:02:40;;;;;;;0.60;0.20;;;13.30;99.90;;;;;;4881609;29;20483;-77
2023/04/16 16:05:10;;;;;;;0.60;0.10;;;13.30;99.90;;;;;;4896280;29;20553;-79
2023/04/16 16:07:38;;;;;;;0.60;0.20;;;13.30;99.90;;;;;;4900811;29;20790;-77
2023/04/16 16:10:07;;;;;;;0.60;0.10;;;13.30;99.90;;;;;;4901195;29;20471;-80
2023/04/16 16:12:35;;;;;;;0.60;0.10;;;13.30;99.90;;;;;;4911461;29;21038;-79
2023/04/16 16:15:05;;;;;;;0.60;0.20;;;13.30;99.90;;;;;;4912526;29;20482;-79
2023/04/16 16:17:33;;;;;;;2.40;0.87;;;13.30;99.90;;;;;;4898894;29;20477;-78
2023/04/16 16:20:03;;;;;;;0.60;0.10;;;13.30;99.90;;;;;;4899081;29;20469;-77
2023/04/16 16:22:32;;;;;;;0.60;0.10;;;13.30;99.90;;;;;;4901023;29;20460;-77
2023/04/16 16:25:00;;;;;;;0.90;0.50;;;13.30;99.90;;;;;;4896129;29;20483;-77
2023/04/16 16:27:28;;;;;;;0.60;0.10;;;13.30;99.90;;;;;;4888147;29;20950;-77
2023/04/16 16:29:56;;;;;;;0.60;0.10;;;13.30;99.90;;;;;;4896591;29;20482;-77
2023/04/16 16:32:25;;;;;;;2.83;0.77;;;13.20;99.90;;;;;;4897732;29;20449;-77
2023/04/16 16:34:53;;;;;;;0.60;0.27;;;;;;;;;;4896521;29;20548;-76
2023/04/16 16:37:21;;;;;;;0.87;0.53;;;13.20;99.90;;;;;;4896355;29;20461;-76
2023/04/16 16:39:49;;;;;;;0.60;0.10;;;13.20;99.90;;;;;;4896373;29;20846;-77
2023/04/16 16:42:17;;;;;;;0.67;0.37;;;13.30;99.90;;;;;;4897131;29;20453;-75
2023/04/16 16:44:47;;;;;;;0.60;0.10;;;;;;;;;;4897897;29;20549;-77
2023/04/16 16:47:15;;;;;;;1.47;1.03;;;13.20;99.90;;;;;;4896236;29;21289;-77
2023/04/16 16:49:44;;;;;;;0.60;0.30;;;13.30;99.90;;;;;;4879894;29;20502;-77
2023/04/16 16:52:12;;;;;;;0.60;0.10;;;13.30;99.90;;;;;;4881006;29;20458;-78
2023/04/16 16:54:41;;;;;;;0.60;0.10;;;13.20;99.90;;;;;;4880689;29;20478;-78
2023/04/16 16:57:09;;;;;;;0.60;0.10;;;13.20;99.90;;;;;;4880714;29;20870;-78
2023/04/16 16:59:37;;;;;;;0.60;0.10;;;13.20;99.90;;;;;;4880554;29;20454;-79
2023/04/16 17:02:05;;;;;;;0.60;0.10;;;13.20;99.90;;;;;;4880041;29;20450;-78
2023/04/16 17:04:33;;;;;;;0.87;0.87;;;13.30;99.90;;;;;;4880639;29;20508;-78